Time;durP1;ratioP1;P1;durP2;ratioP2;P2;SDS_P1;SDS_P2;PMS_P1;PMS_P2;Temp;Humidity;BMP_temperature;BMP_pressure;BME280_temperature;BME280_humidity;BME280_pressure;Samples;Min_cycle;Max_cycle;Signal;HPM_P1;HPM_P2
2021/10/27 00:00:32;;;;;;;;;;;;;;;17.34;nan;98745.94;5073207;28;19929;-80
2021/10/27 00:03:00;;;;;;;;;;;;;;;17.27;nan;98734.22;5052236;28;19931;-80
2021/10/27 00:05:27;;;;;;;;;;;;;;;17.16;nan;98729.06;5070293;28;19925;-80
2021/10/27 00:07:55;;;;;;;;;;;;;;;17.43;nan;98740.28;5054848;28;19924;-80
2021/10/27 00:10:22;;;;;;;;;;;;;;;17.33;nan;98740.78;5055244;28;19928;-80
2021/10/27 00:12:49;;;;;;;;;;;;;;;17.37;nan;98738.56;5072969;28;19928;-80
2021/10/27 00:15:16;;;;;;;;;;;;;;;17.64;nan;98744.91;5072862;28;19931;-80
2021/10/27 00:17:43;;;;;;;;;;;;;;;17.47;nan;98738.09;5038625;28;19931;-80
2021/10/27 00:20:10;;;;;;;;;;;;;;;17.23;nan;98736.44;5072904;28;19924;-80
2021/10/27 00:22:38;;;;;;;;;;;;;;;17.18;nan;98737.84;5035960;28;19931;-80
2021/10/27 00:25:06;;;;;;;;;;;;;;;17.12;nan;98742.59;5055242;28;19924;-80
2021/10/27 00:27:33;;;;;;;;;;;;;;;16.82;nan;98742.81;5073023;28;20375;-80
2021/10/27 00:30:00;;;;;;;;;;;;;;;16.77;nan;98734.97;5055002;28;19924;-80
2021/10/27 00:32:27;;;;;;;;;;;;;;;17.16;nan;98737.53;5051665;28;20299;-80
2021/10/27 00:34:54;;;;;;;;;;;;;;;17.00;nan;98745.59;5049712;28;19928;-80
2021/10/27 00:37:25;;;;;;;;;;;;;;;16.78;nan;98745.03;5065929;28;19925;-80
2021/10/27 00:39:53;;;;;;;;;;;;;;;17.23;nan;98733.59;5041054;28;19974;-80
2021/10/27 00:42:20;;;;;;;;;;;;;;;16.80;nan;98728.38;5058645;28;19924;-80
2021/10/27 00:44:47;;;;;;;;;;;;;;;17.15;nan;98718.25;5076160;28;19925;-80
2021/10/27 00:47:16;;;;;;;;;;;;;;;17.21;nan;98734.09;5076468;28;19925;-80
2021/10/27 00:49:44;;;;;;;;;;;;;;;17.34;nan;98742.34;5091983;28;19924;-80
2021/10/27 00:52:13;;;;;;;;;;;;;;;17.40;nan;98735.56;5024752;28;19931;-80
2021/10/27 00:54:42;;;;;;;;;;;;;;;17.15;nan;98729.53;5034238;28;19947;-80
2021/10/27 00:57:10;;;;;;;;;;;;;;;16.87;nan;98745.00;5054875;28;19925;-80
2021/10/27 00:59:39;;;;;;;;;;;;;;;17.03;nan;98736.97;5038362;28;19931;-80
2021/10/27 01:02:06;;;;;;;;;;;;;;;17.07;nan;98743.22;5073888;28;19924;-80
2021/10/27 01:04:34;;;;;;;;;;;;;;;17.32;nan;98739.22;5058347;28;20306;-81
2021/10/27 01:07:01;;;;;;;;;;;;;;;17.28;nan;98730.91;5058079;28;19925;-80
2021/10/27 01:09:28;;;;;;;;;;;;;;;16.93;nan;98738.25;5058251;28;20383;-80
2021/10/27 01:11:58;;;;;;;;;;;;;;;17.07;nan;98728.34;5075890;28;19924;-80
2021/10/27 01:14:36;;;;;;;;;;;;;;;16.81;nan;98727.91;5058339;28;19925;-80
2021/10/27 01:17:05;;;;;;;;;;;;;;;16.83;nan;98724.63;5075812;28;20409;-80
2021/10/27 01:19:33;;;;;;;;;;;;;;;16.94;nan;98739.00;5058188;28;19928;-80
2021/10/27 01:22:01;;;;;;;;;;;;;;;17.12;nan;98699.44;5075891;28;19947;-80
2021/10/27 01:24:28;;;;;;;;;;;;;;;16.89;nan;98742.50;5075697;28;19943;-80
2021/10/27 01:26:56;;;;;;;;;;;;;;;16.80;nan;98731.19;5054544;28;19924;-80
2021/10/27 01:29:23;;;;;;;;;;;;;;;17.21;nan;98738.94;5049028;28;19925;-80
2021/10/27 01:31:50;;;;;;;;;;;;;;;17.00;nan;98742.75;5075484;28;19931;-80
2021/10/27 01:34:18;;;;;;;;;;;;;;;17.18;nan;98720.13;5057960;28;19925;-80
2021/10/27 01:36:45;;;;;;;;;;;;;;;16.94;nan;98722.09;5075318;28;19931;-80
2021/10/27 01:39:12;;;;;;;;;;;;;;;16.84;nan;98734.66;5075610;28;19987;-80
2021/10/27 01:41:39;;;;;;;;;;;;;;;16.98;nan;98722.72;5075285;28;19924;-80
2021/10/27 01:44:06;;;;;;;;;;;;;;;17.04;nan;98721.59;5054076;28;20400;-80
2021/10/27 01:46:35;;;;;;;;;;;;;;;16.56;nan;98702.09;5067814;28;19925;-80
2021/10/27 01:49:04;;;;;;;;;;;;;;;17.06;nan;98719.06;5075326;28;19928;-80
2021/10/27 01:51:31;;;;;;;;;;;;;;;17.08;nan;98710.13;5074818;28;19924;-80
2021/10/27 01:53:59;;;;;;;;;;;;;;;16.88;nan;98713.50;5075098;28;20422;-80
2021/10/27 01:56:26;;;;;;;;;;;;;;;17.08;nan;98710.94;5053565;28;19929;-80
2021/10/27 01:58:53;;;;;;;;;;;;;;;16.89;nan;98700.16;5074371;28;19932;-80
2021/10/27 02:01:21;;;;;;;;;;;;;;;16.85;nan;98703.16;5053775;28;20287;-80
2021/10/27 02:03:48;;;;;;;;;;;;;;;17.02;nan;98697.94;5054766;28;19924;-80
2021/10/27 02:06:15;;;;;;;;;;;;;;;17.23;nan;98708.97;5074728;28;19924;-81
2021/10/27 02:08:42;;;;;;;;;;;;;;;17.06;nan;98695.72;5075029;28;19924;-80
2021/10/27 02:11:10;;;;;;;;;;;;;;;17.43;nan;98688.66;5074757;28;20330;-80
2021/10/27 02:13:49;;;;;;;;;;;;;;;16.89;nan;98698.13;5074606;28;19924;-80
2021/10/27 02:16:16;;;;;;;;;;;;;;;17.04;nan;98684.13;5074597;28;19931;-80
2021/10/27 02:18:43;;;;;;;;;;;;;;;17.14;nan;98680.78;5055709;28;19977;-80
2021/10/27 02:21:11;;;;;;;;;;;;;;;16.81;nan;98684.81;5055964;28;19950;-80
2021/10/27 02:23:39;;;;;;;;;;;;;;;17.04;nan;98681.31;5056640;28;19990;-80
2021/10/27 02:26:06;;;;;;;;;;;;;;;17.32;nan;98679.91;5056731;28;19932;-80
2021/10/27 02:28:33;;;;;;;;;;;;;;;16.90;nan;98659.41;5056642;28;19948;-81
2021/10/27 02:31:00;;;;;;;;;;;;;;;17.16;nan;98666.97;5036942;28;20392;-80
2021/10/27 02:33:28;;;;;;;;;;;;;;;17.04;nan;98659.50;5060316;28;19924;-81
2021/10/27 02:35:57;;;;;;;;;;;;;;;16.94;nan;98654.34;5053092;28;19931;-80
2021/10/27 02:38:38;;;;;;;;;;;;;;;17.15;nan;98653.31;5053164;28;19978;-80
2021/10/27 02:41:05;;;;;;;;;;;;;;;17.06;nan;98640.03;5066736;28;20277;-80
2021/10/27 02:43:35;;;;;;;;;;;;;;;16.83;nan;98637.94;5040149;28;19925;-80
2021/10/27 02:46:02;;;;;;;;;;;;;;;17.12;nan;98646.59;5074372;28;19924;-80
2021/10/27 02:48:30;;;;;;;;;;;;;;;17.13;nan;98633.28;5073927;28;20299;-80
2021/10/27 02:50:57;;;;;;;;;;;;;;;16.72;nan;98625.59;5073960;28;20391;-80
2021/10/27 02:53:28;;;;;;;;;;;;;;;16.77;nan;98650.34;5059796;28;19924;-80
2021/10/27 02:55:56;;;;;;;;;;;;;;;16.90;nan;98653.75;5073920;28;19924;-81
2021/10/27 02:58:23;;;;;;;;;;;;;;;17.04;nan;98659.50;5052996;28;19928;-80
2021/10/27 03:00:51;;;;;;;;;;;;;;;17.00;nan;98656.06;5052781;28;20405;-80
2021/10/27 03:03:19;;;;;;;;;;;;;;;16.98;nan;98644.47;5067454;28;19924;-80
2021/10/27 03:05:46;;;;;;;;;;;;;;;16.76;nan;98648.78;5073652;28;19924;-81
2021/10/27 03:08:13;;;;;;;;;;;;;;;16.85;nan;98631.81;5073967;28;19928;-80
2021/10/27 03:10:40;;;;;;;;;;;;;;;17.01;nan;98642.75;5052442;28;19925;-80
2021/10/27 03:13:07;;;;;;;;;;;;;;;17.07;nan;98626.72;5046353;28;19925;-80
2021/10/27 03:15:34;;;;;;;;;;;;;;;17.17;nan;98625.41;5038358;28;19946;-81
2021/10/27 03:18:02;;;;;;;;;;;;;;;17.24;nan;98639.16;5073944;28;19931;-80
2021/10/27 03:20:29;;;;;;;;;;;;;;;17.12;nan;98631.69;5055771;28;20379;-80
2021/10/27 03:22:56;;;;;;;;;;;;;;;16.92;nan;98639.97;5055639;28;19947;-80
2021/10/27 03:25:23;;;;;;;;;;;;;;;16.97;nan;98647.75;5073502;28;20357;-80
2021/10/27 03:27:51;;;;;;;;;;;;;;;16.83;nan;98640.75;5073501;28;20430;-80
2021/10/27 03:30:18;;;;;;;;;;;;;;;16.43;nan;98642.25;5055569;28;20428;-81
2021/10/27 03:32:45;;;;;;;;;;;;;;;16.77;nan;98648.31;5069698;28;19931;-81
2021/10/27 03:35:12;;;;;;;;;;;;;;;16.64;nan;98646.94;5073668;28;19925;-80
2021/10/27 03:37:39;;;;;;;;;;;;;;;16.81;nan;98656.59;5052875;28;19929;-80
2021/10/27 03:40:07;;;;;;;;;;;;;;;16.71;nan;98652.22;5055679;28;19924;-80
2021/10/27 03:42:34;;;;;;;;;;;;;;;16.65;nan;98643.63;5066673;28;20284;-80
2021/10/27 03:45:02;;;;;;;;;;;;;;;16.85;nan;98648.75;5076515;28;19930;-80
2021/10/27 03:47:30;;;;;;;;;;;;;;;16.75;nan;98638.75;5039089;28;19925;-80
2021/10/27 03:49:58;;;;;;;;;;;;;;;16.63;nan;98642.56;5056238;28;20376;-80
2021/10/27 03:52:26;;;;;;;;;;;;;;;16.80;nan;98635.28;5018953;28;19931;-80
2021/10/27 03:54:53;;;;;;;;;;;;;;;16.70;nan;98634.53;5088451;28;19978;-80
2021/10/27 03:57:20;;;;;;;;;;;;;;;16.96;nan;98637.75;5083827;28;19924;-80
2021/10/27 03:59:49;;;;;;;;;;;;;;;16.99;nan;98617.03;5092942;28;20131;-80
2021/10/27 04:02:16;;;;;;;;;;;;;;;16.87;nan;98612.38;5093260;28;19924;-80
2021/10/27 04:04:43;;;;;;;;;;;;;;;16.61;nan;98620.47;5075640;28;20302;-80
2021/10/27 04:07:10;;;;;;;;;;;;;;;17.07;nan;98612.63;5064739;28;19924;-80
2021/10/27 04:09:38;;;;;;;;;;;;;;;16.94;nan;98626.13;5056725;28;19943;-80
2021/10/27 04:12:05;;;;;;;;;;;;;;;17.01;nan;98603.25;5062765;28;19932;-80
2021/10/27 04:14:32;;;;;;;;;;;;;;;17.12;nan;98626.06;5081733;28;19924;-80
2021/10/27 04:16:59;;;;;;;;;;;;;;;16.96;nan;98629.28;5066493;28;20432;-80
2021/10/27 04:19:26;;;;;;;;;;;;;;;16.74;nan;98637.97;5097081;28;19924;-80
2021/10/27 04:21:54;;;;;;;;;;;;;;;16.70;nan;98628.91;5096881;28;19924;-80
2021/10/27 04:24:21;;;;;;;;;;;;;;;16.77;nan;98631.38;5097166;28;20389;-80
2021/10/27 04:26:48;;;;;;;;;;;;;;;16.91;nan;98632.75;5096501;28;19924;-80
2021/10/27 04:29:15;;;;;;;;;;;;;;;16.83;nan;98620.22;5097210;28;20286;-80
2021/10/27 04:31:42;;;;;;;;;;;;;;;16.73;nan;98624.34;5076619;28;20380;-80
2021/10/27 04:34:09;;;;;;;;;;;;;;;16.79;nan;98636.53;5067295;28;19924;-80
2021/10/27 04:36:37;;;;;;;;;;;;;;;17.00;nan;98635.53;5062235;28;19924;-80
2021/10/27 04:39:04;;;;;;;;;;;;;;;17.02;nan;98633.00;5078805;28;20540;-80
2021/10/27 04:41:31;;;;;;;;;;;;;;;17.07;nan;98632.38;5079156;28;19930;-80
2021/10/27 04:43:58;;;;;;;;;;;;;;;17.26;nan;98633.84;5078678;28;20298;-80
2021/10/27 04:46:27;;;;;;;;;;;;;;;17.11;nan;98630.16;5085358;28;19930;-80
2021/10/27 04:48:54;;;;;;;;;;;;;;;17.07;nan;98646.47;5090701;28;19928;-81
2021/10/27 04:51:21;;;;;;;;;;;;;;;17.00;nan;98630.66;5086176;28;19938;-80
2021/10/27 04:53:48;;;;;;;;;;;;;;;17.16;nan;98643.63;5064111;28;19931;-80
2021/10/27 04:56:16;;;;;;;;;;;;;;;17.20;nan;98619.59;5078623;28;19924;-81
2021/10/27 04:58:43;;;;;;;;;;;;;;;17.09;nan;98638.31;5078595;28;19968;-80
2021/10/27 05:01:11;;;;;;;;;;;;;;;16.93;nan;98645.13;5095335;28;19924;-80
2021/10/27 05:03:41;;;;;;;;;;;;;;;17.06;nan;98633.63;5096484;28;19931;-80
2021/10/27 05:06:09;;;;;;;;;;;;;;;17.11;nan;98639.41;5096280;28;19924;-80
2021/10/27 05:08:36;;;;;;;;;;;;;;;17.15;nan;98633.56;5064292;28;20358;-80
2021/10/27 05:11:03;;;;;;;;;;;;;;;16.70;nan;98637.38;5076282;28;19932;-80
2021/10/27 05:13:30;;;;;;;;;;;;;;;17.23;nan;98631.97;5087016;28;19925;-80
2021/10/27 05:15:58;;;;;;;;;;;;;;;17.11;nan;98636.59;5055810;28;19930;-80
2021/10/27 05:18:25;;;;;;;;;;;;;;;16.87;nan;98626.50;5066020;28;19924;-80
2021/10/27 05:20:53;;;;;;;;;;;;;;;16.66;nan;98627.50;5081377;28;19930;-80
2021/10/27 05:23:20;;;;;;;;;;;;;;;16.87;nan;98627.28;5067305;28;19950;-80
2021/10/27 05:25:47;;;;;;;;;;;;;;;16.63;nan;98629.22;5096253;28;19924;-80
2021/10/27 05:28:14;;;;;;;;;;;;;;;16.75;nan;98621.84;5073628;28;19934;-80
2021/10/27 05:30:41;;;;;;;;;;;;;;;16.78;nan;98618.06;5086542;28;19924;-80
2021/10/27 05:33:09;;;;;;;;;;;;;;;16.73;nan;98618.69;5078045;28;19943;-80
2021/10/27 05:35:36;;;;;;;;;;;;;;;17.01;nan;98620.94;5077950;28;19925;-80
2021/10/27 05:38:03;;;;;;;;;;;;;;;16.87;nan;98626.50;5076621;28;19924;-80
2021/10/27 05:40:30;;;;;;;;;;;;;;;17.17;nan;98611.28;5054321;28;20444;-80
2021/10/27 05:42:58;;;;;;;;;;;;;;;16.78;nan;98615.25;5065423;28;19924;-80
2021/10/27 05:45:27;;;;;;;;;;;;;;;17.28;nan;98617.97;5071633;28;19928;-81
2021/10/27 05:47:59;;;;;;;;;;;;;;;17.09;nan;98624.19;5070083;28;19928;-80
2021/10/27 05:55:46;;;;;;;;;;;;;;;17.22;nan;98630.41;5077697;28;19928;-80
2021/10/27 05:58:14;;;;;;;;;;;;;;;17.08;nan;98625.47;5070776;28;19931;-79
2021/10/27 06:00:42;;;;;;;;;;;;;;;17.32;nan;98623.44;5095334;28;19924;-81
2021/10/27 06:03:09;;;;;;;;;;;;;;;17.53;nan;98616.75;5095233;28;19924;-80
2021/10/27 06:05:36;;;;;;;;;;;;;;;17.22;nan;98611.41;5077142;28;19924;-81
2021/10/27 06:08:04;;;;;;;;;;;;;;;17.07;nan;98606.97;5060687;28;20385;-81
2021/10/27 06:10:31;;;;;;;;;;;;;;;17.06;nan;98616.69;5065509;28;19929;-79
2021/10/27 06:13:07;;;;;;;;;;;;;;;17.13;nan;98600.16;5076610;28;20264;-79
2021/10/27 06:15:35;;;;;;;;;;;;;;;17.17;nan;98617.75;5076736;28;20348;-79
2021/10/27 06:18:03;;;;;;;;;;;;;;;16.99;nan;98615.00;5077707;28;19925;-79
2021/10/27 06:20:30;;;;;;;;;;;;;;;17.09;nan;98618.53;5057331;28;19924;-79
2021/10/27 06:22:57;;;;;;;;;;;;;;;17.03;nan;98606.34;5073162;28;19924;-79
2021/10/27 06:25:25;;;;;;;;;;;;;;;17.21;nan;98611.91;5040103;28;20428;-79
2021/10/27 06:28:00;;;;;;;;;;;;;;;17.01;nan;98600.41;5051248;28;19924;-79
2021/10/27 06:30:42;;;;;;;;;;;;;;;17.10;nan;98614.47;5080296;28;19928;-79
2021/10/27 06:36:04;;;;;;;;;;;;;;;17.32;nan;98612.94;5051093;28;19928;-79
2021/10/27 06:49:05;;;;;;;;;;;;;;;17.20;nan;98610.34;5029510;28;19932;-79
2021/10/27 06:51:33;;;;;;;;;;;;;;;16.98;nan;98629.59;5031216;28;20650;-79
2021/10/27 06:54:01;;;;;;;;;;;;;;;17.02;nan;98619.69;5014598;28;19990;-79
2021/10/27 06:56:28;;;;;;;;;;;;;;;17.05;nan;98626.41;5013482;28;20343;-79
2021/10/27 06:59:41;;;;;;;;;;;;;;;16.77;nan;98622.13;5027082;28;20380;-79
2021/10/27 07:07:18;;;;;;;;;;;;;;;17.13;nan;98636.09;5031637;28;19935;-79
2021/10/27 07:15:31;;;;;;;;;;;;;;;17.07;nan;98626.72;5022705;28;20003;-82
2021/10/27 07:17:58;;;;;;;;;;;;;;;17.39;nan;98634.38;5031819;28;20289;-81
2021/10/27 07:20:25;;;;;;;;;;;;;;;17.26;nan;98628.19;5005070;28;20376;-81
2021/10/27 07:22:55;;;;;;;;;;;;;;;17.19;nan;98637.78;5086744;28;19924;-81
2021/10/27 07:25:23;;;;;;;;;;;;;;;17.33;nan;98630.66;5093003;28;19928;-81
2021/10/27 07:27:51;;;;;;;;;;;;;;;17.31;nan;98639.59;5073512;28;20283;-81
2021/10/27 07:30:18;;;;;;;;;;;;;;;17.25;nan;98630.22;5081733;28;19924;-81
2021/10/27 07:32:52;;;;;;;;;;;;;;;17.17;nan;98633.88;5092549;28;19931;-81
2021/10/27 07:35:25;;;;;;;;;;;;;;;17.30;nan;98637.25;5050259;28;19969;-81
2021/10/27 07:40:42;;;;;;;;;;;;;;;17.34;nan;98626.59;5063278;28;19931;-81
2021/10/27 07:43:13;;;;;;;;;;;;;;;17.21;nan;98628.84;5087639;28;19924;-81
2021/10/27 07:45:40;;;;;;;;;;;;;;;17.13;nan;98634.03;5077644;28;20360;-81
2021/10/27 07:48:08;;;;;;;;;;;;;;;17.55;nan;98645.31;5059954;28;19931;-81
2021/10/27 07:50:37;;;;;;;;;;;;;;;16.90;nan;98636.81;5066504;28;19973;-81
2021/10/27 07:53:06;;;;;;;;;;;;;;;17.36;nan;98652.28;5084645;28;19970;-81
2021/10/27 07:55:34;;;;;;;;;;;;;;;17.34;nan;98654.81;5078222;28;20375;-83
2021/10/27 07:58:02;;;;;;;;;;;;;;;17.46;nan;98651.78;5060503;28;20403;-83
2021/10/27 08:00:29;;;;;;;;;;;;;;;17.52;nan;98649.84;5043401;28;19924;-82
2021/10/27 08:03:01;;;;;;;;;;;;;;;17.49;nan;98650.81;5046070;28;20405;-84
2021/10/27 08:05:34;;;;;;;;;;;;;;;17.37;nan;98656.69;5077629;28;20368;-84
2021/10/27 08:08:01;;;;;;;;;;;;;;;17.55;nan;98659.44;5074139;28;19924;-84
2021/10/27 08:10:29;;;;;;;;;;;;;;;17.72;nan;98657.75;5048252;28;20295;-84
2021/10/27 08:12:57;;;;;;;;;;;;;;;17.47;nan;98635.63;5060682;28;19928;-84
2021/10/27 08:15:24;;;;;;;;;;;;;;;17.69;nan;98647.44;5083769;28;19924;-83
2021/10/27 08:17:52;;;;;;;;;;;;;;;17.91;nan;98647.88;5092592;28;19924;-83
2021/10/27 08:20:23;;;;;;;;;;;;;;;17.99;nan;98643.44;5058586;28;19925;-83
2021/10/27 08:23:03;;;;;;;;;;;;;;;18.02;nan;98645.28;5073824;28;19947;-83
2021/10/27 08:25:34;;;;;;;;;;;;;;;17.66;nan;98654.03;5045392;28;20271;-83
2021/10/27 08:28:04;;;;;;;;;;;;;;;17.83;nan;98657.97;5080207;28;19925;-83
2021/10/27 08:30:36;;;;;;;;;;;;;;;17.75;nan;98646.25;5078969;28;19924;-83
2021/10/27 08:33:18;;;;;;;;;;;;;;;18.16;nan;98658.66;5068713;28;20406;-83
2021/10/27 08:35:45;;;;;;;;;;;;;;;18.44;nan;98657.19;5029032;28;19924;-83
2021/10/27 08:38:13;;;;;;;;;;;;;;;18.51;nan;98659.63;5045830;28;20353;-83
2021/10/27 08:40:41;;;;;;;;;;;;;;;18.26;nan;98651.66;5058873;28;20367;-83
2021/10/27 08:43:10;;;;;;;;;;;;;;;17.93;nan;98651.00;5067766;28;19931;-83
2021/10/27 08:45:41;;;;;;;;;;;;;;;18.20;nan;98664.91;5076179;28;19935;-83
2021/10/27 08:48:09;;;;;;;;;;;;;;;17.93;nan;98679.28;5077051;28;19930;-83
2021/10/27 08:50:37;;;;;;;;;;;;;;;18.28;nan;98663.25;5081311;28;20481;-83
2021/10/27 08:53:06;;;;;;;;;;;;;;;18.29;nan;98659.19;5076572;28;19924;-83
2021/10/27 08:55:35;;;;;;;;;;;;;;;18.31;nan;98659.47;5066465;28;19924;-84
2021/10/27 08:58:03;;;;;;;;;;;;;;;18.20;nan;98670.56;5082167;28;19947;-83
2021/10/27 09:00:37;;;;;;;;;;;;;;;18.52;nan;98647.06;5045237;28;19924;-85
2021/10/27 09:03:15;;;;;;;;;;;;;;;18.46;nan;98660.31;5068433;28;20376;-81
2021/10/27 09:41:32;;;;;;;;;;;;;;;17.76;nan;98644.22;5013400;28;20064;-81
2021/10/27 09:47:00;;;;;;;;;;;;;;;18.35;nan;98631.78;5013454;28;19933;-80
2021/10/27 09:56:40;;;;;;;;;;;;;;;17.90;nan;98652.75;4974907;28;19984;-81
2021/10/27 10:05:35;;;;;;;;;;;;;;;18.06;nan;98626.09;4984536;28;19975;-80
2021/10/27 10:08:20;;;;;;;;;;;;;;;18.08;nan;98622.78;5010439;28;19932;-80
2021/10/27 10:11:06;;;;;;;;;;;;;;;18.21;nan;98632.53;5029242;28;20388;-80
2021/10/27 10:14:05;;;;;;;;;;;;;;;18.24;nan;98633.59;5005071;28;20383;-81
2021/10/27 10:16:52;;;;;;;;;;;;;;;18.02;nan;98630.34;5016351;28;19932;-80
2021/10/27 10:19:41;;;;;;;;;;;;;;;18.40;nan;98628.31;5016385;28;20412;-81
2021/10/27 10:22:52;;;;;;;;;;;;;;;18.53;nan;98625.19;5006405;28;19937;-80
2021/10/27 10:25:47;;;;;;;;;;;;;;;18.38;nan;98625.19;5007497;28;19968;-80
2021/10/27 10:28:37;;;;;;;;;;;;;;;18.50;nan;98626.94;5054476;28;19931;-81
2021/10/27 10:31:30;;;;;;;;;;;;;;;18.52;nan;98624.44;5059342;28;19931;-81
2021/10/27 10:34:35;;;;;;;;;;;;;;;18.33;nan;98623.00;5067188;28;19931;-81
2021/10/27 10:37:40;;;;;;;;;;;;;;;18.29;nan;98599.78;5082943;28;19974;-82
2021/10/27 10:40:37;;;;;;;;;;;;;;;18.34;nan;98623.78;5061691;28;20017;-81
2021/10/27 10:44:04;;;;;;;;;;;;;;;18.10;nan;98611.75;5079521;28;20395;-80
2021/10/27 11:24:08;;;;;;;;;;;;;;;18.48;nan;98572.13;5086025;28;20337;-78
2021/10/27 11:41:33;;;;;;;;;;;;;;;19.05;nan;98599.56;5086153;28;19931;-78
2021/10/27 11:44:12;;;;;;;;;;;;;;;18.93;nan;98606.31;5082966;28;19932;-78
2021/10/27 11:47:03;;;;;;;;;;;;;;;19.04;nan;98631.97;5084049;28;19924;-78
2021/10/27 11:49:39;;;;;;;;;;;;;;;18.72;nan;98609.59;5068475;28;19924;-78
2021/10/27 11:52:06;;;;;;;;;;;;;;;18.80;nan;98616.38;5081254;28;19931;-78
2021/10/27 11:54:34;;;;;;;;;;;;;;;18.67;nan;98613.88;5085692;28;20393;-78
2021/10/27 11:57:02;;;;;;;;;;;;;;;18.68;nan;98638.06;5086070;28;19931;-78
2021/10/27 11:59:40;;;;;;;;;;;;;;;18.53;nan;98630.84;5086270;28;19924;-78
2021/10/27 12:02:08;;;;;;;;;;;;;;;18.32;nan;98632.75;5088090;28;19932;-78
2021/10/27 12:04:36;;;;;;;;;;;;;;;18.52;nan;98637.78;5092150;28;19969;-78
2021/10/27 12:07:12;;;;;;;;;;;;;;;18.78;nan;98642.34;5092017;28;19924;-78
2021/10/27 12:12:33;;;;;;;;;;;;;;;19.19;nan;98629.91;5069352;28;19928;-78
2021/10/27 12:18:05;;;;;;;;;;;;;;;18.62;nan;98639.22;5092015;28;20391;-77
2021/10/27 12:20:36;;;;;;;;;;;;;;;18.65;nan;98643.91;5091512;28;19947;-81
2021/10/27 12:23:05;;;;;;;;;;;;;;;18.66;nan;98649.09;5077739;28;19924;-81
2021/10/27 12:25:33;;;;;;;;;;;;;;;18.75;nan;98648.97;5074379;28;19924;-81
2021/10/27 12:28:03;;;;;;;;;;;;;;;18.44;nan;98623.25;5077782;28;19931;-81
2021/10/27 12:30:38;;;;;;;;;;;;;;;18.50;nan;98624.13;5093052;28;19927;-81
2021/10/27 12:33:05;;;;;;;;;;;;;;;18.46;nan;98620.72;5095801;28;19931;-81
2021/10/27 12:35:32;;;;;;;;;;;;;;;18.48;nan;98614.56;5069391;28;19925;-81
2021/10/27 12:38:15;;;;;;;;;;;;;;;18.46;nan;98620.72;5077182;28;19950;-81
2021/10/27 12:40:44;;;;;;;;;;;;;;;18.42;nan;98644.81;5062178;28;19924;-81
2021/10/27 12:43:13;;;;;;;;;;;;;;;18.35;nan;98631.78;5082556;28;19924;-80
2021/10/27 12:45:44;;;;;;;;;;;;;;;18.40;nan;98633.97;5078592;28;19924;-80
2021/10/27 12:48:17;;;;;;;;;;;;;;;18.41;nan;98623.44;5078939;28;19924;-80
2021/10/27 12:50:50;;;;;;;;;;;;;;;18.56;nan;98638.34;5078687;28;19930;-80
2021/10/27 12:53:39;;;;;;;;;;;;;;;18.63;nan;98629.50;5096744;28;20257;-80
2021/10/27 12:56:07;;;;;;;;;;;;;;;18.59;nan;98618.38;5051917;28;20276;-80
2021/10/27 12:58:38;;;;;;;;;;;;;;;18.51;nan;98622.09;5072112;28;19931;-80
2021/10/27 13:01:15;;;;;;;;;;;;;;;18.61;nan;98632.03;5085087;28;19924;-80
2021/10/27 13:06:43;;;;;;;;;;;;;;;18.59;nan;98612.72;5075078;28;19931;-81
2021/10/27 13:29:38;;;;;;;;;;;;;;;18.81;nan;98618.72;5093683;28;19966;-80
2021/10/27 13:32:13;;;;;;;;;;;;;;;18.44;nan;98616.78;5076245;28;19924;-80
2021/10/27 13:34:40;;;;;;;;;;;;;;;18.60;nan;98627.63;5058018;28;19935;-80
2021/10/27 13:37:08;;;;;;;;;;;;;;;18.86;nan;98608.75;5083141;28;19924;-80
2021/10/27 13:39:36;;;;;;;;;;;;;;;18.99;nan;98601.53;5093964;28;20329;-80
2021/10/27 13:42:11;;;;;;;;;;;;;;;18.88;nan;98589.25;5060657;28;20261;-80
2021/10/27 13:44:56;;;;;;;;;;;;;;;18.79;nan;98593.00;5077290;28;19932;-79
2021/10/27 13:58:32;;;;;;;;;;;;;;;18.38;nan;98568.63;5082094;28;19925;-80
2021/10/27 14:11:49;;;;;;;;;;;;;;;18.65;nan;98581.66;5077016;28;20325;-81
2021/10/27 14:22:28;;;;;;;;;;;;;;;18.97;nan;98575.78;5081718;28;19939;-81
2021/10/27 15:22:45;;;;;;;;;;;;;;;18.13;nan;98529.56;5093675;28;20302;-81
2021/10/27 15:25:33;;;;;;;;;;;;;;;18.20;nan;98515.06;5034977;28;19931;-81
2021/10/27 15:52:09;;;;;;;;;;;;;;;18.05;nan;98511.47;5087976;28;19928;-81
2021/10/27 15:54:36;;;;;;;;;;;;;;;18.18;nan;98519.63;5085201;28;19924;-81
2021/10/27 15:57:03;;;;;;;;;;;;;;;17.89;nan;98492.13;5040483;28;19924;-81
2021/10/27 15:59:31;;;;;;;;;;;;;;;17.81;nan;98507.94;5073475;28;19950;-81
2021/10/27 16:02:16;;;;;;;;;;;;;;;17.71;nan;98506.44;5062913;28;19931;-81
2021/10/27 16:05:02;;;;;;;;;;;;;;;17.89;nan;98509.88;5069682;28;19947;-81
2021/10/27 16:07:51;;;;;;;;;;;;;;;18.33;nan;98504.22;5077677;28;20009;-82
2021/10/27 16:10:37;;;;;;;;;;;;;;;17.93;nan;98504.81;5076068;28;20043;-81
2021/10/27 16:13:05;;;;;;;;;;;;;;;18.19;nan;98485.22;5097523;28;20393;-81
2021/10/27 16:18:03;;;;;;;;;;;;;;;18.09;nan;98469.63;5075256;28;19932;-81
2021/10/27 16:20:31;;;;;;;;;;;;;;;18.28;nan;98468.13;5033636;28;19937;-81
2021/10/27 16:22:59;;;;;;;;;;;;;;;17.90;nan;98465.44;5072627;28;19924;-81
2021/10/27 16:25:27;;;;;;;;;;;;;;;17.65;nan;98454.69;5065655;28;19931;-81
2021/10/27 16:27:54;;;;;;;;;;;;;;;17.80;nan;98478.09;5049060;28;19925;-81
2021/10/27 16:30:22;;;;;;;;;;;;;;;17.55;nan;98470.94;5057167;28;19925;-81
2021/10/27 16:33:17;;;;;;;;;;;;;;;17.47;nan;98488.75;5074651;28;19932;-81
2021/10/27 16:35:45;;;;;;;;;;;;;;;17.50;nan;98465.19;5068119;28;19933;-81
2021/10/27 16:42:33;;;;;;;;;;;;;;;17.63;nan;98485.50;5079954;28;19922;-82
2021/10/27 16:45:22;;;;;;;;;;;;;;;17.78;nan;98463.69;5083673;28;19931;-82
2021/10/27 16:47:50;;;;;;;;;;;;;;;17.77;nan;98470.59;5069826;28;19924;-81
2021/10/27 16:50:19;;;;;;;;;;;;;;;17.97;nan;98465.06;5056087;28;19944;-81
2021/10/27 16:52:48;;;;;;;;;;;;;;;18.02;nan;98477.72;5058052;28;19924;-81
2021/10/27 16:55:20;;;;;;;;;;;;;;;17.98;nan;98477.91;5075808;28;19931;-81
2021/10/27 16:57:48;;;;;;;;;;;;;;;17.73;nan;98456.69;5056753;28;19951;-81
2021/10/27 17:00:16;;;;;;;;;;;;;;;17.63;nan;98479.84;5076069;28;19931;-81
2021/10/27 17:02:44;;;;;;;;;;;;;;;17.55;nan;98487.13;5080924;28;20290;-81
2021/10/27 17:05:11;;;;;;;;;;;;;;;17.58;nan;98472.03;5068098;28;19929;-81
2021/10/27 17:07:39;;;;;;;;;;;;;;;17.71;nan;98483.84;5055921;28;19932;-81
2021/10/27 17:10:08;;;;;;;;;;;;;;;17.54;nan;98471.44;5043989;28;20326;-81
2021/10/27 17:12:36;;;;;;;;;;;;;;;17.70;nan;98440.69;5054230;28;19944;-81
2021/10/27 17:15:04;;;;;;;;;;;;;;;17.80;nan;98495.06;5075531;28;19931;-81
2021/10/27 17:17:35;;;;;;;;;;;;;;;17.64;nan;98489.88;5065006;28;19935;-81
2021/10/27 17:20:05;;;;;;;;;;;;;;;17.84;nan;98473.06;5073588;28;19931;-81
2021/10/27 17:22:38;;;;;;;;;;;;;;;17.96;nan;98486.13;5074589;28;19924;-81
2021/10/27 17:25:06;;;;;;;;;;;;;;;17.69;nan;98489.97;5067546;28;19925;-81
2021/10/27 17:27:37;;;;;;;;;;;;;;;17.98;nan;98477.91;5068444;28;19977;-81
2021/10/27 17:30:12;;;;;;;;;;;;;;;18.03;nan;98482.88;5062218;28;20265;-81
2021/10/27 17:32:39;;;;;;;;;;;;;;;17.79;nan;98487.84;5058540;28;19924;-81
2021/10/27 17:35:14;;;;;;;;;;;;;;;17.65;nan;98489.41;5076365;28;19925;-81
2021/10/27 17:37:42;;;;;;;;;;;;;;;17.83;nan;98494.88;5075839;28;19928;-81
2021/10/27 17:40:20;;;;;;;;;;;;;;;17.51;nan;98497.81;5059415;28;19931;-82
2021/10/27 17:42:49;;;;;;;;;;;;;;;17.64;nan;98476.53;5040067;28;19978;-80
2021/10/27 17:45:20;;;;;;;;;;;;;;;17.95;nan;98484.53;5073667;28;20390;-81
2021/10/27 17:47:54;;;;;;;;;;;;;;;17.95;nan;98488.16;5040489;28;19924;-81
2021/10/27 18:00:33;;;;;;;;;;;;;;;17.52;nan;98474.75;5084062;28;19925;-81
2021/10/27 18:03:00;;;;;;;;;;;;;;;17.78;nan;98487.06;5088459;28;19931;-81
2021/10/27 18:05:27;;;;;;;;;;;;;;;17.63;nan;98474.19;5070085;28;19984;-80
2021/10/27 18:07:54;;;;;;;;;;;;;;;17.80;nan;98461.13;5080446;28;19924;-80
2021/10/27 18:10:24;;;;;;;;;;;;;;;17.53;nan;98469.88;5077301;28;19928;-80
2021/10/27 18:12:53;;;;;;;;;;;;;;;17.45;nan;98458.19;5064893;28;19932;-80
2021/10/27 18:15:21;;;;;;;;;;;;;;;17.63;nan;98462.91;5056423;28;19924;-81
2021/10/27 18:17:48;;;;;;;;;;;;;;;17.40;nan;98472.19;5062749;28;19929;-80
2021/10/27 18:20:25;;;;;;;;;;;;;;;17.46;nan;98461.78;5078531;28;19924;-80